sensor_id;sensor_type;location;lat;lon;timestamp;pressure;altitude;pressure_sealevel;temperature;humidity
13612;BME280;6877;51.436;6.774;2023-12-20T00:00:48;101005.00;;;6.25;100.00
13612;BME280;6877;51.436;6.774;2023-12-20T00:03:15;101011.06;;;6.23;100.00
13612;BME280;6877;51.436;6.774;2023-12-20T00:05:47;101008.47;;;6.18;100.00
13612;BME280;6877;51.436;6.774;2023-12-20T00:08:19;101007.56;;;6.12;100.00
13612;BME280;6877;51.436;6.774;2023-12-20T00:10:50;101012.72;;;6.04;100.00
13612;BME280;6877;51.436;6.774;2023-12-20T00:13:16;101015.28;;;5.95;100.00
13612;BME280;6877;51.436;6.774;2023-12-20T00:15:48;101016.94;;;5.84;100.00
13612;BME280;6877;51.436;6.774;2023-12-20T00:18:19;101028.13;;;5.75;100.00
13612;BME280;6877;51.436;6.774;2023-12-20T00:20:45;101027.25;;;5.71;100.00
13612;BME280;6877;51.436;6.774;2023-12-20T00:23:17;101022.03;;;5.65;100.00
13612;BME280;6877;51.436;6.774;2023-12-20T00:25:43;101024.56;;;5.61;100.00
13612;BME280;6877;51.436;6.774;2023-12-20T00:28:15;101026.31;;;5.58;100.00
13612;BME280;6877;51.436;6.774;2023-12-20T00:30:41;101030.63;;;5.58;100.00
13612;BME280;6877;51.436;6.774;2023-12-20T00:33:07;101035.81;;;5.55;100.00
13612;BME280;6877;51.436;6.774;2023-12-20T00:35:34;101032.34;;;5.56;100.00
13612;BME280;6877;51.436;6.774;2023-12-20T00:38:00;101035.84;;;5.58;100.00
13612;BME280;6877;51.436;6.774;2023-12-20T00:40:32;101026.34;;;5.62;100.00
13612;BME280;6877;51.436;6.774;2023-12-20T00:43:04;101034.13;;;5.63;100.00
13612;BME280;6877;51.436;6.774;2023-12-20T00:45:35;101032.41;;;5.65;100.00
13612;BME280;6877;51.436;6.774;2023-12-20T00:48:07;101042.78;;;5.65;100.00
13612;BME280;6877;51.436;6.774;2023-12-20T00:50:33;101040.16;;;5.64;100.00
13612;BME280;6877;51.436;6.774;2023-12-20T00:53:05;101042.78;;;5.62;100.00
13612;BME280;6877;51.436;6.774;2023-12-20T00:55:32;101047.09;;;5.63;100.00
13612;BME280;6877;51.436;6.774;2023-12-20T00:58:03;101045.38;;;5.62;100.00
13612;BME280;6877;51.436;6.774;2023-12-20T01:00:30;101038.41;;;5.61;100.00
13612;BME280;6877;51.436;6.774;2023-12-20T01:03:01;101039.31;;;5.63;100.00
13612;BME280;6877;51.436;6.774;2023-12-20T01:05:32;101049.72;;;5.65;100.00
13612;BME280;6877;51.436;6.774;2023-12-20T01:08:04;101051.44;;;5.67;100.00
13612;BME280;6877;51.436;6.774;2023-12-20T01:10:31;101044.53;;;5.66;100.00
13612;BME280;6877;51.436;6.774;2023-12-20T01:13:03;101055.78;;;5.67;100.00
13612;BME280;6877;51.436;6.774;2023-12-20T01:15:34;101050.56;;;5.67;100.00
13612;BME280;6877;51.436;6.774;2023-12-20T01:18:01;101050.56;;;5.67;100.00
13612;BME280;6877;51.436;6.774;2023-12-20T01:20:32;101053.16;;;5.67;100.00
13612;BME280;6877;51.436;6.774;2023-12-20T01:23:04;101058.41;;;5.68;100.00
13612;BME280;6877;51.436;6.774;2023-12-20T01:25:30;101055.78;;;5.68;100.00
13612;BME280;6877;51.436;6.774;2023-12-20T01:27:57;101052.31;;;5.66;100.00
13612;BME280;6877;51.436;6.774;2023-12-20T01:30:28;101064.41;;;5.64;100.00
13612;BME280;6877;51.436;6.774;2023-12-20T01:33:00;101057.47;;;5.60;100.00
13612;BME280;6877;51.436;6.774;2023-12-20T01:35:27;101071.28;;;5.57;100.00
13612;BME280;6877;51.436;6.774;2023-12-20T01:37:58;101073.84;;;5.50;100.00
13612;BME280;6877;51.436;6.774;2023-12-20T01:40:30;101074.69;;;5.46;100.00
13612;BME280;6877;51.436;6.774;2023-12-20T01:43:00;101066.81;;;5.37;100.00
13612;BME280;6877;51.436;6.774;2023-12-20T01:45:27;101068.44;;;5.25;100.00
13612;BME280;6877;51.436;6.774;2023-12-20T01:47:55;101064.88;;;5.13;100.00
13612;BME280;6877;51.436;6.774;2023-12-20T01:50:28;101064.81;;;5.02;100.00
13612;BME280;6877;51.436;6.774;2023-12-20T01:52:57;101057.72;;;4.88;100.00
13612;BME280;6877;51.436;6.774;2023-12-20T01:55:25;101057.66;;;4.81;100.00
13612;BME280;6877;51.436;6.774;2023-12-20T01:57:52;101060.19;;;4.75;100.00
13612;BME280;6877;51.436;6.774;2023-12-20T02:00:19;101068.03;;;4.79;100.00
13612;BME280;6877;51.436;6.774;2023-12-20T02:02:54;101075.00;;;4.83;100.00
13612;BME280;6877;51.436;6.774;2023-12-20T02:05:23;101071.53;;;4.84;100.00
13612;BME280;6877;51.436;6.774;2023-12-20T02:07:57;101076.75;;;4.86;100.00
13612;BME280;6877;51.436;6.774;2023-12-20T02:10:28;101064.59;;;4.80;100.00
13612;BME280;6877;51.436;6.774;2023-12-20T02:13:00;101057.59;;;4.73;100.00
13612;BME280;6877;51.436;6.774;2023-12-20T02:15:31;101057.59;;;4.73;100.00
13612;BME280;6877;51.436;6.774;2023-12-20T02:18:03;101070.59;;;4.76;100.00
13612;BME280;6877;51.436;6.774;2023-12-20T02:20:35;101075.81;;;4.81;100.00
13612;BME280;6877;51.436;6.774;2023-12-20T02:23:01;101071.53;;;4.84;100.00
13612;BME280;6877;51.436;6.774;2023-12-20T02:25:33;101064.53;;;4.76;100.00
13612;BME280;6877;51.436;6.774;2023-12-20T02:27:59;101069.63;;;4.68;100.00
13612;BME280;6877;51.436;6.774;2023-12-20T02:30:31;101062.69;;;4.64;100.00
13612;BME280;6877;51.436;6.774;2023-12-20T02:32:59;101071.22;;;4.57;100.00
13612;BME280;6877;51.436;6.774;2023-12-20T02:35:26;101065.97;;;4.51;100.00
13612;BME280;6877;51.436;6.774;2023-12-20T02:37:57;101067.59;;;4.39;100.00
13612;BME280;6877;51.436;6.774;2023-12-20T02:40:24;101064.94;;;4.35;100.00
13612;BME280;6877;51.436;6.774;2023-12-20T02:42:55;101070.03;;;4.27;100.00
13612;BME280;6877;51.436;6.774;2023-12-20T02:45:22;101071.69;;;4.22;100.00
13612;BME280;6877;51.436;6.774;2023-12-20T02:47:53;101064.78;;;4.21;100.00
13612;BME280;6877;51.436;6.774;2023-12-20T02:50:20;101057.88;;;4.22;100.00
13612;BME280;6877;51.436;6.774;2023-12-20T02:52:46;101066.47;;;4.17;100.00
13612;BME280;6877;51.436;6.774;2023-12-20T02:55:13;101060.41;;;4.17;100.00
13612;BME280;6877;51.436;6.774;2023-12-20T02:57:39;101062.16;;;4.18;100.00
13612;BME280;6877;51.436;6.774;2023-12-20T03:00:13;101079.38;;;4.16;100.00
13612;BME280;6877;51.436;6.774;2023-12-20T03:02:40;101082.78;;;4.12;100.00
13612;BME280;6877;51.436;6.774;2023-12-20T03:05:06;101080.16;;;4.07;100.00
13612;BME280;6877;51.436;6.774;2023-12-20T03:07:33;101072.31;;;4.03;100.00
13612;BME280;6877;51.436;6.774;2023-12-20T03:09:59;101074.06;;;4.04;100.00
13612;BME280;6877;51.436;6.774;2023-12-20T03:12:26;101074.19;;;4.16;100.00
13612;BME280;6877;51.436;6.774;2023-12-20T03:14:57;101079.47;;;4.22;100.00
13612;BME280;6877;51.436;6.774;2023-12-20T03:17:29;101076.94;;;4.28;100.00
13612;BME280;6877;51.436;6.774;2023-12-20T03:20:00;101074.41;;;4.31;100.00
13612;BME280;6877;51.436;6.774;2023-12-20T03:22:26;101071.84;;;4.33;100.00
13612;BME280;6877;51.436;6.774;2023-12-20T03:24:53;101074.44;;;4.33;100.00
13612;BME280;6877;51.436;6.774;2023-12-20T03:27:24;101061.44;;;4.31;100.00
13612;BME280;6877;51.436;6.774;2023-12-20T03:29:56;101069.25;;;4.33;100.00
13612;BME280;6877;51.436;6.774;2023-12-20T03:32:27;101052.84;;;4.32;100.00
13612;BME280;6877;51.436;6.774;2023-12-20T03:34:59;101056.28;;;4.33;100.00
13612;BME280;6877;51.436;6.774;2023-12-20T03:37:25;101051.97;;;4.33;100.00
13612;BME280;6877;51.436;6.774;2023-12-20T03:39:51;101053.66;;;4.31;100.00
13612;BME280;6877;51.436;6.774;2023-12-20T03:42:18;101055.38;;;4.29;100.00
13612;BME280;6877;51.436;6.774;2023-12-20T03:44:44;101048.38;;;4.22;100.00
13612;BME280;6877;51.436;6.774;2023-12-20T03:47:16;101050.88;;;4.16;100.00
13612;BME280;6877;51.436;6.774;2023-12-20T03:49:42;101055.19;;;4.14;100.00
13612;BME280;6877;51.436;6.774;2023-12-20T03:52:09;101055.13;;;4.09;100.00
13612;BME280;6877;51.436;6.774;2023-12-20T03:54:40;101051.63;;;4.04;100.00
13612;BME280;6877;51.436;6.774;2023-12-20T03:57:13;101056.75;;;4.01;100.00
13612;BME280;6877;51.436;6.774;2023-12-20T03:59:40;101051.50;;;3.97;100.00
13612;BME280;6877;51.436;6.774;2023-12-20T04:02:11;101040.28;;;3.94;100.00
13612;BME280;6877;51.436;6.774;2023-12-20T04:04:38;101044.56;;;3.92;100.00
13612;BME280;6877;51.436;6.774;2023-12-20T04:07:04;101031.59;;;3.92;100.00
13612;BME280;6877;51.436;6.774;2023-12-20T04:09:36;101018.66;;;3.92;100.00
13612;BME280;6877;51.436;6.774;2023-12-20T04:12:02;101022.16;;;3.94;100.00
13612;BME280;6877;51.436;6.774;2023-12-20T04:14:29;101038.50;;;3.92;100.00
13612;BME280;6877;51.436;6.774;2023-12-20T04:16:56;101045.41;;;3.91;100.00
13612;BME280;6877;51.436;6.774;2023-12-20T04:19:22;101038.56;;;3.97;100.00
13612;BME280;6877;51.436;6.774;2023-12-20T04:21:53;101043.91;;;4.07;100.00
13612;BME280;6877;51.436;6.774;2023-12-20T04:24:25;101052.59;;;4.15;100.00
13612;BME280;6877;51.436;6.774;2023-12-20T04:26:56;101041.44;;;4.18;100.00
13612;BME280;6877;51.436;6.774;2023-12-20T04:29:23;101047.47;;;4.18;100.00
13612;BME280;6877;51.436;6.774;2023-12-20T04:31:49;101056.97;;;4.18;100.00
13612;BME280;6877;51.436;6.774;2023-12-20T04:34:18;101054.38;;;4.18;100.00
13612;BME280;6877;51.436;6.774;2023-12-20T04:36:49;101069.13;;;4.24;100.00
13612;BME280;6877;51.436;6.774;2023-12-20T04:39:15;101060.53;;;4.28;100.00
13612;BME280;6877;51.436;6.774;2023-12-20T04:41:47;101061.44;;;4.31;100.00
13612;BME280;6877;51.436;6.774;2023-12-20T04:44:16;101057.97;;;4.31;100.00
13612;BME280;6877;51.436;6.774;2023-12-20T04:46:47;101052.72;;;4.25;100.00
13612;BME280;6877;51.436;6.774;2023-12-20T04:49:14;101061.41;;;4.27;100.00
13612;BME280;6877;51.436;6.774;2023-12-20T04:51:40;101065.78;;;4.32;100.00
13612;BME280;6877;51.436;6.774;2023-12-20T04:54:12;101061.44;;;4.30;100.00
13612;BME280;6877;51.436;6.774;2023-12-20T04:56:39;101062.19;;;4.21;100.00
13612;BME280;6877;51.436;6.774;2023-12-20T04:59:11;101059.56;;;4.16;100.00
13612;BME280;6877;51.436;6.774;2023-12-20T05:01:37;101057.75;;;4.12;100.00
13612;BME280;6877;51.436;6.774;2023-12-20T05:04:04;101060.34;;;4.11;100.00
13612;BME280;6877;51.436;6.774;2023-12-20T05:06:35;101060.25;;;4.05;100.00
13612;BME280;6877;51.436;6.774;2023-12-20T05:09:02;101059.31;;;3.98;100.00
13612;BME280;6877;51.436;6.774;2023-12-20T05:11:33;101054.91;;;3.92;100.00
13612;BME280;6877;51.436;6.774;2023-12-20T05:14:00;101063.47;;;3.87;100.00
13612;BME280;6877;51.436;6.774;2023-12-20T05:16:31;101054.78;;;3.83;100.00
13612;BME280;6877;51.436;6.774;2023-12-20T05:18:57;101060.00;;;3.86;100.00
13612;BME280;6877;51.436;6.774;2023-12-20T05:21:26;101053.19;;;3.93;100.00
13612;BME280;6877;51.436;6.774;2023-12-20T05:23:53;101058.50;;;4.01;100.00
13612;BME280;6877;51.436;6.774;2023-12-20T05:26:19;101052.50;;;4.06;100.00
13612;BME280;6877;51.436;6.774;2023-12-20T05:28:51;101049.97;;;4.12;100.00
13612;BME280;6877;51.436;6.774;2023-12-20T05:31:17;101041.38;;;4.15;100.00
13612;BME280;6877;51.436;6.774;2023-12-20T05:33:48;101045.75;;;4.17;100.00
13612;BME280;6877;51.436;6.774;2023-12-20T05:36:20;101049.22;;;4.21;100.00
13612;BME280;6877;51.436;6.774;2023-12-20T05:38:47;101051.00;;;4.24;100.00
13612;BME280;6877;51.436;6.774;2023-12-20T05:41:14;101032.91;;;4.27;100.00
13612;BME280;6877;51.436;6.774;2023-12-20T05:43:40;101032.91;;;4.28;100.00
13612;BME280;6877;51.436;6.774;2023-12-20T05:46:07;101039.84;;;4.31;100.00
13612;BME280;6877;51.436;6.774;2023-12-20T05:48:33;101033.81;;;4.32;100.00
13612;BME280;6877;51.436;6.774;2023-12-20T05:50:59;101034.69;;;4.32;100.00
13612;BME280;6877;51.436;6.774;2023-12-20T05:53:26;101041.63;;;4.33;100.00
13612;BME280;6877;51.436;6.774;2023-12-20T05:55:57;101037.31;;;4.35;100.00
13612;BME280;6877;51.436;6.774;2023-12-20T05:58:29;101033.00;;;4.37;100.00
13612;BME280;6877;51.436;6.774;2023-12-20T06:01:00;101041.66;;;4.36;100.00
13612;BME280;6877;51.436;6.774;2023-12-20T06:03:27;101046.00;;;4.39;100.00
13612;BME280;6877;51.436;6.774;2023-12-20T06:05:58;101051.19;;;4.39;100.00
13612;BME280;6877;51.436;6.774;2023-12-20T06:08:31;101053.78;;;4.40;100.00
13612;BME280;6877;51.436;6.774;2023-12-20T06:11:03;101061.59;;;4.44;100.00
13612;BME280;6877;51.436;6.774;2023-12-20T06:13:34;101060.75;;;4.45;100.00
13612;BME280;6877;51.436;6.774;2023-12-20T06:16:01;101045.22;;;4.46;100.00
13612;BME280;6877;51.436;6.774;2023-12-20T06:18:28;101045.25;;;4.48;100.00
13612;BME280;6877;51.436;6.774;2023-12-20T06:20:54;101049.56;;;4.49;100.00
13612;BME280;6877;51.436;6.774;2023-12-20T06:23:26;101053.88;;;4.50;100.00
13612;BME280;6877;51.436;6.774;2023-12-20T06:25:54;101056.50;;;4.51;100.00
13612;BME280;6877;51.436;6.774;2023-12-20T06:28:20;101054.78;;;4.53;100.00
13612;BME280;6877;51.436;6.774;2023-12-20T06:30:52;101060.88;;;4.55;100.00
13612;BME280;6877;51.436;6.774;2023-12-20T06:33:20;101061.75;;;4.57;100.00
13612;BME280;6877;51.436;6.774;2023-12-20T06:35:49;101054.00;;;4.57;100.00
13612;BME280;6877;51.436;6.774;2023-12-20T06:38:17;101052.28;;;4.61;100.00
13612;BME280;6877;51.436;6.774;2023-12-20T06:40:49;101047.97;;;4.63;100.00
13612;BME280;6877;51.436;6.774;2023-12-20T06:43:15;101040.22;;;4.66;100.00
13612;BME280;6877;51.436;6.774;2023-12-20T06:45:42;101055.81;;;4.69;100.00
13612;BME280;6877;51.436;6.774;2023-12-20T06:48:13;101054.97;;;4.72;100.00
13612;BME280;6877;51.436;6.774;2023-12-20T06:50:40;101061.94;;;4.74;100.00
13612;BME280;6877;51.436;6.774;2023-12-20T06:53:06;101067.16;;;4.77;100.00
13612;BME280;6877;51.436;6.774;2023-12-20T06:55:36;101048.16;;;4.80;100.00
13612;BME280;6877;51.436;6.774;2023-12-20T06:58:09;101046.47;;;4.83;100.00
13612;BME280;6877;51.436;6.774;2023-12-20T07:00:40;101055.13;;;4.85;100.00
13612;BME280;6877;51.436;6.774;2023-12-20T07:03:12;101059.47;;;4.86;100.00
13612;BME280;6877;51.436;6.774;2023-12-20T07:05:44;101031.78;;;4.88;100.00
13612;BME280;6877;51.436;6.774;2023-12-20T07:08:10;101053.47;;;4.92;100.00
13612;BME280;6877;51.436;6.774;2023-12-20T07:10:37;101037.94;;;4.95;100.00
13612;BME280;6877;51.436;6.774;2023-12-20T07:13:03;101050.91;;;4.97;100.00
13612;BME280;6877;51.436;6.774;2023-12-20T07:15:30;101037.97;;;4.98;100.00
13612;BME280;6877;51.436;6.774;2023-12-20T07:18:01;101031.91;;;5.01;100.00
13612;BME280;6877;51.436;6.774;2023-12-20T07:20:32;101033.66;;;5.02;100.00
13612;BME280;6877;51.436;6.774;2023-12-20T07:22:59;101033.66;;;5.02;100.00
13612;BME280;6877;51.436;6.774;2023-12-20T07:25:30;101036.28;;;5.06;100.00
13612;BME280;6877;51.436;6.774;2023-12-20T07:27:58;101041.50;;;5.09;100.00
13612;BME280;6877;51.436;6.774;2023-12-20T07:30:25;101044.13;;;5.11;100.00
13612;BME280;6877;51.436;6.774;2023-12-20T07:32:56;101051.03;;;5.12;100.00
13612;BME280;6877;51.436;6.774;2023-12-20T07:35:25;101046.72;;;5.13;100.00
13612;BME280;6877;51.436;6.774;2023-12-20T07:37:57;101039.00;;;5.17;100.00
13612;BME280;6877;51.436;6.774;2023-12-20T07:40:23;101043.31;;;5.20;100.00
13612;BME280;6877;51.436;6.774;2023-12-20T07:42:50;101039.00;;;5.19;100.00
13612;BME280;6877;51.436;6.774;2023-12-20T07:45:21;101051.09;;;5.18;100.00
13612;BME280;6877;51.436;6.774;2023-12-20T07:47:48;101045.94;;;5.21;100.00
13612;BME280;6877;51.436;6.774;2023-12-20T07:50:15;101047.69;;;5.24;100.00
13612;BME280;6877;51.436;6.774;2023-12-20T07:52:47;101050.28;;;5.24;100.00
13612;BME280;6877;51.436;6.774;2023-12-20T07:55:13;101044.22;;;5.23;100.00
13612;BME280;6877;51.436;6.774;2023-12-20T07:57:44;101056.38;;;5.27;100.00
13612;BME280;6877;51.436;6.774;2023-12-20T08:00:17;101049.44;;;5.29;100.00
13612;BME280;6877;51.436;6.774;2023-12-20T08:02:48;101039.94;;;5.27;100.00
13612;BME280;6877;51.436;6.774;2023-12-20T08:05:15;101027.84;;;5.30;100.00
13612;BME280;6877;51.436;6.774;2023-12-20T08:07:46;101045.19;;;5.33;100.00
13612;BME280;6877;51.436;6.774;2023-12-20T08:10:12;101036.53;;;5.34;100.00
13612;BME280;6877;51.436;6.774;2023-12-20T08:12:39;101028.72;;;5.34;100.00
13612;BME280;6877;51.436;6.774;2023-12-20T08:15:06;101031.31;;;5.35;100.00
13612;BME280;6877;51.436;6.774;2023-12-20T08:17:33;101042.59;;;5.38;100.00
13612;BME280;6877;51.436;6.774;2023-12-20T08:19:59;101051.28;;;5.40;100.00
13612;BME280;6877;51.436;6.774;2023-12-20T08:22:26;101042.59;;;5.38;100.00
13612;BME280;6877;51.436;6.774;2023-12-20T08:24:57;101046.06;;;5.37;100.00
13612;BME280;6877;51.436;6.774;2023-12-20T08:27:24;101036.53;;;5.34;100.00
13612;BME280;6877;51.436;6.774;2023-12-20T08:29:51;101034.78;;;5.33;100.00
13612;BME280;6877;51.436;6.774;2023-12-20T08:32:26;101046.94;;;5.37;100.00
13612;BME280;6877;51.436;6.774;2023-12-20T08:34:58;101048.66;;;5.38;100.00
13612;BME280;6877;51.436;6.774;2023-12-20T08:37:24;101057.34;;;5.40;100.00
13612;BME280;6877;51.436;6.774;2023-12-20T08:39:56;101046.94;;;5.40;100.00
13612;BME280;6877;51.436;6.774;2023-12-20T08:42:27;101057.31;;;5.42;100.00
13612;BME280;6877;51.436;6.774;2023-12-20T08:44:57;101061.69;;;5.43;100.00
13612;BME280;6877;51.436;6.774;2023-12-20T08:47:27;101056.47;;;5.44;100.00
13612;BME280;6877;51.436;6.774;2023-12-20T08:49:58;101047.84;;;5.44;100.00
13612;BME280;6877;51.436;6.774;2023-12-20T08:52:26;101039.19;;;5.45;100.00
13612;BME280;6877;51.436;6.774;2023-12-20T08:54:55;101059.09;;;5.47;100.00
13612;BME280;6877;51.436;6.774;2023-12-20T08:57:27;101059.97;;;5.46;100.00
13612;BME280;6877;51.436;6.774;2023-12-20T08:59:54;101054.78;;;5.48;100.00
13612;BME280;6877;51.436;6.774;2023-12-20T09:02:25;101051.34;;;5.50;100.00
13612;BME280;6877;51.436;6.774;2023-12-20T09:04:57;101044.44;;;5.54;100.00
13612;BME280;6877;51.436;6.774;2023-12-20T09:07:28;101041.03;;;5.58;100.00
13612;BME280;6877;51.436;6.774;2023-12-20T09:10:01;101048.81;;;5.60;100.00
13612;BME280;6877;51.436;6.774;2023-12-20T09:12:29;101035.84;;;5.58;100.00
13612;BME280;6877;51.436;6.774;2023-12-20T09:15:00;101040.13;;;5.53;100.00
13612;BME280;6877;51.436;6.774;2023-12-20T09:17:29;101050.50;;;5.53;100.00
13612;BME280;6877;51.436;6.774;2023-12-20T09:19:56;101042.69;;;5.51;100.00
13612;BME280;6877;51.436;6.774;2023-12-20T09:22:27;101039.22;;;5.51;100.00
13612;BME280;6877;51.436;6.774;2023-12-20T09:24:54;101035.78;;;5.49;100.00
13612;BME280;6877;51.436;6.774;2023-12-20T09:27:20;101023.63;;;5.48;100.00
13612;BME280;6877;51.436;6.774;2023-12-20T09:29:51;101028.84;;;5.51;100.00
13612;BME280;6877;51.436;6.774;2023-12-20T09:32:19;101036.66;;;5.52;100.00
13612;BME280;6877;51.436;6.774;2023-12-20T09:34:48;101024.53;;;5.54;100.00
13612;BME280;6877;51.436;6.774;2023-12-20T09:37:20;101030.63;;;5.58;100.00
13612;BME280;6877;51.436;6.774;2023-12-20T09:39:51;101028.03;;;5.60;100.00
13612;BME280;6877;51.436;6.774;2023-12-20T09:45:10;101037.56;;;5.62;100.00
13612;BME280;6877;51.436;6.774;2023-12-20T09:47:44;101041.88;;;5.58;100.00
13612;BME280;6877;51.436;6.774;2023-12-20T09:50:12;101037.56;;;5.62;100.00
13612;BME280;6877;51.436;6.774;2023-12-20T09:52:39;101037.59;;;5.65;100.00
13612;BME280;6877;51.436;6.774;2023-12-20T09:55:11;101031.53;;;5.63;100.00
13612;BME280;6877;51.436;6.774;2023-12-20T09:57:43;101037.59;;;5.67;100.00
13612;BME280;6877;51.436;6.774;2023-12-20T10:00:15;101034.13;;;5.63;100.00
13612;BME280;6877;51.436;6.774;2023-12-20T10:02:59;101035.03;;;5.73;100.00
13612;BME280;6877;51.436;6.774;2023-12-20T10:05:32;101043.72;;;5.75;100.00
13612;BME280;6877;51.436;6.774;2023-12-20T10:08:04;101027.28;;;5.74;100.00
13612;BME280;6877;51.436;6.774;2023-12-20T10:10:35;101040.28;;;5.82;100.00
13612;BME280;6877;51.436;6.774;2023-12-20T10:13:06;101036.84;;;5.85;100.00
13612;BME280;6877;51.436;6.774;2023-12-20T10:15:37;101028.19;;;5.86;100.00
13612;BME280;6877;51.436;6.774;2023-12-20T10:18:09;101023.88;;;5.92;100.00
13612;BME280;6877;51.436;6.774;2023-12-20T10:20:37;101031.78;;;6.04;100.00
13612;BME280;6877;51.436;6.774;2023-12-20T10:23:08;101034.41;;;6.09;100.00
13612;BME280;6877;51.436;6.774;2023-12-20T10:25:40;101021.44;;;6.12;100.00
13612;BME280;6877;51.436;6.774;2023-12-20T10:28:16;101007.56;;;6.13;100.00
13612;BME280;6877;51.436;6.774;2023-12-20T10:30:54;101016.22;;;6.12;100.00
13612;BME280;6877;51.436;6.774;2023-12-20T10:33:25;101004.97;;;6.13;100.00
13612;BME280;6877;51.436;6.774;2023-12-20T10:35:57;101011.03;;;6.14;100.00
13612;BME280;6877;51.436;6.774;2023-12-20T10:38:23;101014.50;;;6.13;100.00
13612;BME280;6877;51.436;6.774;2023-12-20T10:40:54;101015.34;;;6.13;100.00
13612;BME280;6877;51.436;6.774;2023-12-20T10:43:28;101011.00;;;6.11;100.00
13612;BME280;6877;51.436;6.774;2023-12-20T10:45:57;101017.94;;;6.10;100.00
13612;BME280;6877;51.436;6.774;2023-12-20T10:48:30;101013.63;;;6.12;100.00
13612;BME280;6877;51.436;6.774;2023-12-20T10:50:57;101003.25;;;6.12;100.00
13612;BME280;6877;51.436;6.774;2023-12-20T10:53:25;100998.91;;;6.16;100.00
13612;BME280;6877;51.436;6.774;2023-12-20T10:55:55;101006.72;;;6.26;100.00
13612;BME280;6877;51.436;6.774;2023-12-20T10:58:29;101008.50;;;6.32;100.00
13612;BME280;6877;51.436;6.774;2023-12-20T11:01:00;101016.28;;;6.37;100.00
13612;BME280;6877;51.436;6.774;2023-12-20T11:03:32;101007.63;;;6.33;100.00
13612;BME280;6877;51.436;6.774;2023-12-20T11:06:08;101008.50;;;6.34;100.00
13612;BME280;6877;51.436;6.774;2023-12-20T11:08:50;101010.22;;;6.32;100.00
13612;BME280;6877;51.436;6.774;2023-12-20T11:11:37;101002.41;;;6.25;100.00
13612;BME280;6877;51.436;6.774;2023-12-20T11:14:07;101005.00;;;6.22;100.00
13612;BME280;6877;51.436;6.774;2023-12-20T11:16:37;100997.19;;;6.24;100.00
13612;BME280;6877;51.436;6.774;2023-12-20T11:19:11;101002.44;;;6.32;100.00
13612;BME280;6877;51.436;6.774;2023-12-20T11:21:46;100998.97;;;6.39;100.00
13612;BME280;6877;51.436;6.774;2023-12-20T11:24:12;100997.25;;;6.42;100.00
13612;BME280;6877;51.436;6.774;2023-12-20T11:26:47;100993.81;;;6.49;100.00
13612;BME280;6877;51.436;6.774;2023-12-20T11:29:36;100993.81;;;6.59;100.00
13612;BME280;6877;51.436;6.774;2023-12-20T11:32:04;100980.81;;;6.60;100.00
13612;BME280;6877;51.436;6.774;2023-12-20T11:34:56;100984.31;;;6.62;100.00
13612;BME280;6877;51.436;6.774;2023-12-20T11:37:28;100973.91;;;6.68;100.00
13612;BME280;6877;51.436;6.774;2023-12-20T11:39:59;100979.97;;;6.63;100.00
13612;BME280;6877;51.436;6.774;2023-12-20T11:42:26;100970.41;;;6.60;100.00
13612;BME280;6877;51.436;6.774;2023-12-20T11:44:53;100981.69;;;6.59;100.00
13612;BME280;6877;51.436;6.774;2023-12-20T11:47:25;100985.16;;;6.50;100.00
13612;BME280;6877;51.436;6.774;2023-12-20T11:49:56;100977.34;;;6.50;100.00
13612;BME280;6877;51.436;6.774;2023-12-20T11:52:23;100972.13;;;6.46;100.00
13612;BME280;6877;51.436;6.774;2023-12-20T11:54:49;100970.38;;;6.36;100.00
13612;BME280;6877;51.436;6.774;2023-12-20T11:57:18;100969.50;;;6.26;100.00
13612;BME280;6877;51.436;6.774;2023-12-20T11:59:50;100966.00;;;6.16;100.00
13612;BME280;6877;51.436;6.774;2023-12-20T12:02:16;100959.94;;;6.13;100.00
13612;BME280;6877;51.436;6.774;2023-12-20T12:04:48;100969.47;;;6.12;100.00
13612;BME280;6877;51.436;6.774;2023-12-20T12:07:15;100959.94;;;6.17;100.00
13612;BME280;6877;51.436;6.774;2023-12-20T12:09:41;100957.34;;;6.19;100.00
13612;BME280;6877;51.436;6.774;2023-12-20T12:12:08;100963.44;;;6.25;100.00
13612;BME280;6877;51.436;6.774;2023-12-20T12:14:40;100953.91;;;6.26;100.00
13612;BME280;6877;51.436;6.774;2023-12-20T12:17:11;100943.50;;;6.28;100.00
13612;BME280;6877;51.436;6.774;2023-12-20T12:19:43;100946.13;;;6.28;100.00
13612;BME280;6877;51.436;6.774;2023-12-20T12:22:12;100939.16;;;6.30;100.00
13612;BME280;6877;51.436;6.774;2023-12-20T12:24:47;100941.75;;;6.30;100.00
13612;BME280;6877;51.436;6.774;2023-12-20T12:27:14;100955.66;;;6.38;100.00
13612;BME280;6877;51.436;6.774;2023-12-20T12:30:02;100953.91;;;6.46;100.00
13612;BME280;6877;51.436;6.774;2023-12-20T12:32:30;100949.63;;;6.54;100.00
13612;BME280;6877;51.436;6.774;2023-12-20T12:34:56;100965.22;;;6.57;100.00
13612;BME280;6877;51.436;6.774;2023-12-20T12:37:23;100941.81;;;6.53;100.00
13612;BME280;6877;51.436;6.774;2023-12-20T12:39:55;100936.63;;;6.49;100.00
13612;BME280;6877;51.436;6.774;2023-12-20T12:42:27;100940.06;;;6.48;100.00
13612;BME280;6877;51.436;6.774;2023-12-20T12:45:00;100930.53;;;6.46;100.00
13612;BME280;6877;51.436;6.774;2023-12-20T12:47:31;100918.38;;;6.39;100.00
13612;BME280;6877;51.436;6.774;2023-12-20T12:49:58;100916.66;;;6.38;100.00
13612;BME280;6877;51.436;6.774;2023-12-20T12:52:30;100916.66;;;6.35;100.00
13612;BME280;6877;51.436;6.774;2023-12-20T12:55:02;100920.09;;;6.26;100.00
13612;BME280;6877;51.436;6.774;2023-12-20T12:57:35;100928.75;;;6.20;100.00
13612;BME280;6877;51.436;6.774;2023-12-20T13:00:02;100922.69;;;6.17;100.00
13612;BME280;6877;51.436;6.774;2023-12-20T13:02:30;100926.16;;;6.16;100.00
13612;BME280;6877;51.436;6.774;2023-12-20T13:04:56;100915.75;;;6.16;100.00
13612;BME280;6877;51.436;6.774;2023-12-20T13:07:28;100919.22;;;6.12;100.00
13612;BME280;6877;51.436;6.774;2023-12-20T13:09:54;100920.06;;;6.11;100.00
13612;BME280;6877;51.436;6.774;2023-12-20T13:12:26;100910.56;;;6.10;100.00
13612;BME280;6877;51.436;6.774;2023-12-20T13:14:57;100898.44;;;6.06;100.00